Airfield :
LOGIN :

Register | Disclaimer

   EN    FR    IT 

 










Legend :    VFR   Marginal VFR   IFR   Intensive IFR   Very Intensive IFR
Visi :
Ceiling :
>= 8 km
>= 3000ft
5 to 8 km
1000 to 3000 ft
1500m to 5 km
500 to 1000 ft
800 to 1500m
200 to 500 ft
< 800m
< 200 ft
Symbols :   Thunderstorms  Fog  Heavy snow  Heavy precipitations  Wind > 20 kt
SIGMETs :     Misc.  Thunderstorms  Icing  Turbulence  Mountain Waves  Volcanic Ashes






- Airport Elevation : 312 ft
- IATA code : SAW


LTFJ - Sabiha Gokcen

CURRENT METAR :
  • 171150Z 03008KT CAVOK 21/14 Q1019 NOSIG RMK RWY24 36008KT 340V050

EXPIRED METARs :
  • 171120Z 04008KT CAVOK 22/14 Q1019 NOSIG RMK RWY24 36008KT
  • 171050Z 03008KT 350V110 CAVOK 22/14 Q1019 NOSIG RMK RWY24 01008KT 350V050
  • 171020Z 03008KT 350V060 CAVOK 21/14 Q1019 NOSIG RMK RWY24 36007KT
  • 170950Z 03008KT CAVOK 21/14 Q1020 NOSIG RMK RWY24 36007KT 340V070
  • 170920Z 04008KT 010V070 CAVOK 20/14 Q1020 NOSIG RMK RWY24 36006KT

TAF TAF LTFJ
Valid from the 17 at 12:00 until the 18 at 12:00 UTC


171040Z 1712/1812 03012KT CAVOK
BECMG 1717/1720 VRB02KT
PROB30 1803/1807 4000 BR



MET'MAP, your aeronautical weather chart ! - Copyright ORBIFLY December 2007 - Disclaimer

ORBIFLY MET'MAP TEAM :

Programming & Development : Alexandra Zaïnal
Concept & Development : Baudouin d'Aumeries
Co-Development & Prog : Marc-Olivier Méhu
Technical & hardware support : Manuel Goepfert

Contact : metmap@orbifly.com




SOURCES & CREDITS :

   NOAA